createdAt,value
2017-05-16T00:00:55.212Z,1026.65
2017-05-16T00:02:05.164Z,1026.69
2017-05-16T00:03:15.425Z,1026.69
2017-05-16T00:04:25.692Z,1026.65
2017-05-16T00:05:35.966Z,1026.68
2017-05-16T00:06:46.228Z,1026.69
2017-05-16T00:07:56.188Z,1026.72
2017-05-16T00:09:06.458Z,1026.71
2017-05-16T00:10:16.727Z,1026.71
2017-05-16T00:11:26.695Z,1026.69
2017-05-16T00:12:36.639Z,1026.68
2017-05-16T00:13:46.908Z,1026.69
2017-05-16T00:14:57.184Z,1026.69
2017-05-16T00:16:07.136Z,1026.7
2017-05-16T00:17:17.410Z,1026.75
2017-05-16T00:18:27.365Z,1026.74
2017-05-16T00:19:37.635Z,1026.69
2017-05-16T00:20:47.280Z,1026.71
2017-05-16T00:21:57.546Z,1026.71
2017-05-16T00:23:07.503Z,1026.73
2017-05-16T00:24:17.460Z,1026.72
2017-05-16T00:25:27.426Z,1026.75
2017-05-16T00:26:37.376Z,1026.73
2017-05-16T00:27:47.637Z,1026.76
2017-05-16T00:28:57.905Z,1026.73
2017-05-16T00:30:07.856Z,1026.76
2017-05-16T00:31:18.124Z,1026.77
2017-05-16T00:32:27.806Z,1026.77
2017-05-16T00:33:38.082Z,1026.77
2017-05-16T00:34:48.036Z,1026.78
2017-05-16T00:35:57.999Z,1026.74
2017-05-16T00:37:07.948Z,1026.73
2017-05-16T00:38:18.220Z,1026.72
2017-05-16T00:39:28.506Z,1026.74
2017-05-16T00:40:38.520Z,1026.74
2017-05-16T00:41:48.160Z,1026.79
2017-05-16T00:42:58.426Z,1026.77
2017-05-16T00:44:08.691Z,1026.79
2017-05-16T00:45:18.645Z,1026.76
2017-05-16T00:46:27.974Z,1026.73
2017-05-16T00:47:37.612Z,1026.71
2017-05-16T00:48:47.918Z,1026.68
2017-05-16T00:49:58.188Z,1026.69
2017-05-16T00:51:07.825Z,1026.72
2017-05-16T00:52:17.780Z,1026.7
2017-05-16T00:53:28.048Z,1026.68
2017-05-16T00:54:38.321Z,1026.72
2017-05-16T00:55:48.589Z,1026.75
2017-05-16T00:56:58.852Z,1026.74
2017-05-16T00:58:08.805Z,1026.72
2017-05-16T00:59:19.075Z,1026.77
2017-05-16T01:00:29.037Z,1026.74
2017-05-16T01:01:39.295Z,1026.73
2017-05-16T01:02:49.557Z,1026.74
2017-05-16T01:03:59.507Z,1026.72
2017-05-16T01:05:09.771Z,1026.72
2017-05-16T01:06:20.038Z,1026.72
2017-05-16T01:07:30.305Z,1026.74
2017-05-16T01:08:39.944Z,1026.77
2017-05-16T01:09:49.276Z,1026.76
2017-05-16T01:10:58.924Z,1026.75
2017-05-16T01:12:08.875Z,1026.77
2017-05-16T01:13:18.515Z,1026.76
2017-05-16T01:14:28.156Z,1026.75
2017-05-16T01:15:38.109Z,1026.76
2017-05-16T01:16:48.060Z,1026.77
2017-05-16T01:17:58.326Z,1026.78
2017-05-16T01:19:08.270Z,1026.77
2017-05-16T01:20:18.542Z,1026.79
2017-05-16T01:21:28.819Z,1026.81
2017-05-16T01:22:38.774Z,1026.77
2017-05-16T01:23:49.045Z,1026.8
2017-05-16T01:24:59.007Z,1026.77
2017-05-16T01:26:08.964Z,1026.79
2017-05-16T01:27:19.236Z,1026.78
2017-05-16T01:28:29.192Z,1026.79
2017-05-16T01:29:39.465Z,1026.76
2017-05-16T01:30:49.785Z,1026.76
2017-05-16T01:31:59.751Z,1026.76
2017-05-16T01:33:09.393Z,1026.71
2017-05-16T01:34:19.352Z,1026.69
2017-05-16T01:35:29.621Z,1026.71
2017-05-16T01:36:39.575Z,1026.69
2017-05-16T01:37:49.534Z,1026.66
2017-05-16T01:38:59.493Z,1026.66
2017-05-16T01:40:09.757Z,1026.63
2017-05-16T01:41:20.024Z,1026.65
2017-05-16T01:42:29.659Z,1026.62
2017-05-16T01:43:39.925Z,1026.6
2017-05-16T01:44:50.193Z,1026.69
2017-05-16T01:46:00.155Z,1026.67
2017-05-16T01:47:10.431Z,1026.67
2017-05-16T01:48:20.698Z,1026.62
2017-05-16T01:49:30.966Z,1026.66
2017-05-16T01:50:40.962Z,1026.66
2017-05-16T01:51:50.598Z,1026.67
2017-05-16T01:53:00.874Z,1026.62
2017-05-16T01:54:11.148Z,1026.63
2017-05-16T01:55:21.101Z,1026.63
2017-05-16T01:56:30.735Z,1026.63
2017-05-16T01:57:40.997Z,1026.67
2017-05-16T01:58:50.955Z,1026.65
2017-05-16T02:00:00.906Z,1026.68
2017-05-16T02:01:10.854Z,1026.66
2017-05-16T02:02:20.807Z,1026.67
2017-05-16T02:03:30.759Z,1026.7
2017-05-16T02:04:41.032Z,1026.65
2017-05-16T02:05:51.357Z,1026.65
2017-05-16T02:07:01.624Z,1026.65
2017-05-16T02:08:11.575Z,1026.61
2017-05-16T02:09:21.841Z,1026.61
2017-05-16T02:10:31.802Z,1026.6
2017-05-16T02:11:42.071Z,1026.63
2017-05-16T02:12:52.341Z,1026.6
2017-05-16T02:14:02.611Z,1026.62
2017-05-16T02:15:11.935Z,1026.61
2017-05-16T02:16:21.889Z,1026.61
2017-05-16T02:17:32.157Z,1026.6
2017-05-16T02:18:42.112Z,1026.58
2017-05-16T02:19:52.383Z,1026.59
2017-05-16T02:21:02.650Z,1026.59
2017-05-16T02:22:12.604Z,1026.6
2017-05-16T02:23:22.555Z,1026.53
2017-05-16T02:24:32.832Z,1026.58
2017-05-16T02:25:43.105Z,1026.58
2017-05-16T02:26:53.370Z,1026.59
2017-05-16T02:28:03.641Z,1026.6
2017-05-16T02:29:13.912Z,1026.6
2017-05-16T02:30:24.187Z,1026.61
2017-05-16T02:31:34.456Z,1026.62
2017-05-16T02:32:44.411Z,1026.64
2017-05-16T02:33:54.729Z,1026.64
2017-05-16T02:35:04.674Z,1026.62
2017-05-16T02:36:14.940Z,1026.66
2017-05-16T02:37:24.884Z,1026.65
2017-05-16T02:38:34.849Z,1026.62
2017-05-16T02:39:45.120Z,1026.65
2017-05-16T02:40:54.769Z,1026.65
2017-05-16T02:42:05.033Z,1026.62
2017-05-16T02:43:14.987Z,1026.66
2017-05-16T02:44:24.945Z,1026.65
2017-05-16T02:45:34.583Z,1026.63
2017-05-16T02:46:44.541Z,1026.64
2017-05-16T02:47:54.495Z,1026.62
2017-05-16T02:49:04.445Z,1026.65
2017-05-16T02:50:14.708Z,1026.64
2017-05-16T02:51:24.973Z,1026.66
2017-05-16T02:52:35.236Z,1026.64
2017-05-16T02:53:45.507Z,1026.68
2017-05-16T02:54:55.782Z,1026.68
2017-05-16T02:56:05.738Z,1026.69
2017-05-16T02:57:15.689Z,1026.69
2017-05-16T02:58:25.637Z,1026.68
2017-05-16T02:59:35.588Z,1026.73
2017-05-16T03:00:45.863Z,1026.71
2017-05-16T03:01:55.818Z,1026.69
2017-05-16T03:03:06.089Z,1026.7
2017-05-16T03:04:15.426Z,1026.72
2017-05-16T03:05:25.379Z,1026.74
2017-05-16T03:06:35.329Z,1026.78
2017-05-16T03:07:45.595Z,1026.75
2017-05-16T03:08:55.871Z,1026.73
2017-05-16T03:10:06.140Z,1026.75
2017-05-16T03:11:16.405Z,1026.75
2017-05-16T03:12:26.668Z,1026.8
2017-05-16T03:13:36.307Z,1026.8
2017-05-16T03:14:46.253Z,1026.78
2017-05-16T03:15:56.528Z,1026.83
2017-05-16T03:17:06.802Z,1026.85
2017-05-16T03:18:17.070Z,1026.79
2017-05-16T03:19:26.702Z,1026.8
2017-05-16T03:20:36.967Z,1026.82
2017-05-16T03:21:47.233Z,1026.8
2017-05-16T03:22:57.497Z,1026.82
2017-05-16T03:24:07.457Z,1026.82
2017-05-16T03:25:17.726Z,1026.81
2017-05-16T03:26:27.684Z,1026.79
2017-05-16T03:27:37.638Z,1026.82
2017-05-16T03:28:47.589Z,1026.82
2017-05-16T03:29:57.858Z,1026.78
2017-05-16T03:31:07.810Z,1026.75
2017-05-16T03:32:17.769Z,1026.76
2017-05-16T03:33:28.040Z,1026.76
2017-05-16T03:34:37.678Z,1026.8
2017-05-16T03:35:47.634Z,1026.74
2017-05-16T03:36:57.586Z,1026.78
2017-05-16T03:38:07.547Z,1026.74
2017-05-16T03:39:17.502Z,1026.73
2017-05-16T03:40:27.459Z,1026.74
2017-05-16T03:41:37.724Z,1026.73
2017-05-16T03:42:47.992Z,1026.72
2017-05-16T03:43:57.946Z,1026.76
2017-05-16T03:45:07.897Z,1026.72
2017-05-16T03:46:17.845Z,1026.72
2017-05-16T03:47:28.109Z,1026.77
2017-05-16T03:48:38.378Z,1026.78
2017-05-16T03:49:48.643Z,1026.73
2017-05-16T03:50:58.593Z,1026.77
2017-05-16T03:52:08.858Z,1026.75
2017-05-16T03:53:19.126Z,1026.76
2017-05-16T03:54:29.079Z,1026.78
2017-05-16T03:55:39.346Z,1026.76
2017-05-16T03:56:49.611Z,1026.78
2017-05-16T03:57:59.891Z,1026.75
2017-05-16T03:59:09.844Z,1026.75
2017-05-16T04:00:19.802Z,1026.75
2017-05-16T04:01:29.752Z,1026.71
2017-05-16T04:02:39.706Z,1026.73
2017-05-16T04:03:49.972Z,1026.7
2017-05-16T04:04:59.935Z,1026.71
2017-05-16T04:06:09.894Z,1026.69
2017-05-16T04:07:19.531Z,1026.65
2017-05-16T04:08:29.482Z,1026.63
2017-05-16T04:09:39.487Z,1026.61
2017-05-16T04:10:49.765Z,1026.64
2017-05-16T04:11:59.406Z,1026.62
2017-05-16T04:13:09.362Z,1026.63
2017-05-16T04:14:19.391Z,1026.64
2017-05-16T04:15:29.340Z,1026.59
2017-05-16T04:16:39.294Z,1026.64
2017-05-16T04:17:49.565Z,1026.61
2017-05-16T04:18:59.841Z,1026.63
2017-05-16T04:20:10.113Z,1026.66
2017-05-16T04:21:20.374Z,1026.68
2017-05-16T04:22:30.642Z,1026.7
2017-05-16T04:23:40.285Z,1026.7
2017-05-16T04:24:50.553Z,1026.68
2017-05-16T04:26:00.821Z,1026.71
2017-05-16T04:27:10.770Z,1026.68
2017-05-16T04:28:20.721Z,1026.74
2017-05-16T04:29:30.997Z,1026.72
2017-05-16T04:30:40.640Z,1026.7
2017-05-16T04:31:50.595Z,1026.73
2017-05-16T04:33:00.864Z,1026.75
2017-05-16T04:34:09.901Z,1026.72
2017-05-16T04:35:19.865Z,1026.75
2017-05-16T04:36:29.815Z,1026.78
2017-05-16T04:37:39.766Z,1026.78
2017-05-16T04:38:50.041Z,1026.84
2017-05-16T04:40:00.317Z,1026.78
2017-05-16T04:41:10.583Z,1026.8
2017-05-16T04:42:20.218Z,1026.78
2017-05-16T04:43:30.486Z,1026.8
2017-05-16T04:44:40.766Z,1026.82
2017-05-16T04:45:51.032Z,1026.81
2017-05-16T04:47:00.672Z,1026.84
2017-05-16T04:48:10.939Z,1026.83
2017-05-16T04:49:21.201Z,1026.83
2017-05-16T04:50:31.479Z,1026.84
2017-05-16T04:51:41.115Z,1026.81
2017-05-16T04:52:51.381Z,1026.81
2017-05-16T04:54:01.657Z,1026.8
2017-05-16T04:55:11.617Z,1026.83
2017-05-16T04:56:21.935Z,1026.8
2017-05-16T04:57:32.204Z,1026.78
2017-05-16T04:58:42.470Z,1026.82
2017-05-16T04:59:52.739Z,1026.84
2017-05-16T05:01:02.691Z,1026.86
2017-05-16T05:02:12.963Z,1026.88
2017-05-16T05:03:22.909Z,1026.88
2017-05-16T05:04:33.177Z,1026.89
2017-05-16T05:05:43.135Z,1026.86
2017-05-16T05:06:53.088Z,1026.88
2017-05-16T05:08:03.358Z,1026.91
2017-05-16T05:09:12.999Z,1026.91
2017-05-16T05:10:22.640Z,1026.93
2017-05-16T05:11:32.594Z,1026.95
2017-05-16T05:12:42.865Z,1026.96
2017-05-16T05:13:53.130Z,1026.94
2017-05-16T05:15:03.401Z,1027
2017-05-16T05:16:13.035Z,1026.98
2017-05-16T05:17:23.052Z,1026.99
2017-05-16T05:18:33.010Z,1027.02
2017-05-16T05:19:43.282Z,1027.01
2017-05-16T05:20:53.241Z,1027.02
2017-05-16T05:22:03.197Z,1027.03
2017-05-16T05:23:12.521Z,1027.02
2017-05-16T05:24:22.478Z,1027.05
2017-05-16T05:25:32.480Z,1027.06
2017-05-16T05:26:42.806Z,1027.06
2017-05-16T05:27:52.442Z,1027.06
2017-05-16T05:29:02.727Z,1027.06
2017-05-16T05:30:12.678Z,1027.08
2017-05-16T05:31:22.940Z,1027.06
2017-05-16T05:32:33.200Z,1027.01
2017-05-16T05:33:43.150Z,1027.06
2017-05-16T05:34:53.107Z,1027.02
2017-05-16T05:36:03.407Z,1027.03
2017-05-16T05:37:13.724Z,1026.99
2017-05-16T05:38:24.001Z,1027
2017-05-16T05:39:34.277Z,1027.03
2017-05-16T05:40:44.563Z,1027.02
2017-05-16T05:41:54.825Z,1027.02
2017-05-16T05:43:04.782Z,1027.02
2017-05-16T05:44:14.424Z,1027.04
2017-05-16T05:45:24.061Z,1027.05
2017-05-16T05:46:34.326Z,1027.05
2017-05-16T05:47:44.594Z,1027.11
2017-05-16T05:48:54.860Z,1027.12
2017-05-16T05:50:05.129Z,1027.1
2017-05-16T05:51:15.401Z,1027.12
2017-05-16T05:52:25.669Z,1027.12
2017-05-16T05:53:35.622Z,1027.17
2017-05-16T05:54:45.895Z,1027.15
2017-05-16T05:55:55.539Z,1027.16
2017-05-16T05:57:05.813Z,1027.14
2017-05-16T05:58:15.767Z,1027.19
2017-05-16T05:59:25.423Z,1027.14
2017-05-16T06:00:35.386Z,1027.17
2017-05-16T06:01:45.023Z,1027.18
2017-05-16T06:02:55.440Z,1027.2
2017-05-16T06:04:05.865Z,1027.24
2017-05-16T06:05:16.129Z,1027.22
2017-05-16T06:06:26.080Z,1027.24
2017-05-16T06:07:36.399Z,1027.24
2017-05-16T06:08:46.668Z,1027.22
2017-05-16T06:09:56.627Z,1027.25
2017-05-16T06:11:06.592Z,1027.25
2017-05-16T06:12:16.248Z,1027.26
2017-05-16T06:13:26.202Z,1027.26
2017-05-16T06:14:36.478Z,1027.3
2017-05-16T06:15:46.428Z,1027.27
2017-05-16T06:16:56.384Z,1027.32
2017-05-16T06:18:06.658Z,1027.31
2017-05-16T06:19:16.606Z,1027.33
2017-05-16T06:20:26.243Z,1027.33
2017-05-16T06:21:36.508Z,1027.35
2017-05-16T06:22:46.772Z,1027.36
2017-05-16T06:23:57.045Z,1027.32
2017-05-16T06:25:06.686Z,1027.37
2017-05-16T06:26:16.318Z,1027.37
2017-05-16T06:27:25.961Z,1027.38
2017-05-16T06:28:36.223Z,1027.38
2017-05-16T06:29:46.496Z,1027.39
2017-05-16T06:30:56.762Z,1027.43
2017-05-16T06:32:06.128Z,1027.4
2017-05-16T06:33:16.389Z,1027.42
2017-05-16T06:34:26.648Z,1027.41
2017-05-16T06:35:35.977Z,1027.39
2017-05-16T06:36:46.243Z,1027.36
2017-05-16T06:37:56.512Z,1027.4
2017-05-16T06:39:06.150Z,1027.4
2017-05-16T06:40:16.099Z,1027.38
2017-05-16T06:41:26.061Z,1027.4
2017-05-16T06:42:36.016Z,1027.38
2017-05-16T06:43:45.961Z,1027.37
2017-05-16T06:44:56.292Z,1027.37
2017-05-16T06:46:06.568Z,1027.39
2017-05-16T06:47:16.507Z,1027.37
2017-05-16T06:48:26.150Z,1027.4
2017-05-16T06:49:36.110Z,1027.4
2017-05-16T06:50:46.060Z,1027.39
2017-05-16T06:51:56.331Z,1027.41
2017-05-16T06:53:06.595Z,1027.4
2017-05-16T06:54:16.546Z,1027.39
2017-05-16T06:55:26.822Z,1027.41
2017-05-16T06:56:36.793Z,1027.39
2017-05-16T06:57:47.064Z,1027.45
2017-05-16T06:58:57.328Z,1027.44
2017-05-16T07:00:06.971Z,1027.43
2017-05-16T07:01:16.920Z,1027.4
2017-05-16T07:02:26.562Z,1027.44
2017-05-16T07:03:36.830Z,1027.47
2017-05-16T07:04:46.776Z,1027.48
2017-05-16T07:05:57.048Z,1027.45
2017-05-16T07:07:07.003Z,1027.42
2017-05-16T07:08:17.279Z,1027.43
2017-05-16T07:09:27.236Z,1027.44
2017-05-16T07:10:37.507Z,1027.42
2017-05-16T07:11:47.145Z,1027.39
2017-05-16T07:12:57.412Z,1027.42
2017-05-16T07:14:07.691Z,1027.42
2017-05-16T07:15:17.964Z,1027.4
2017-05-16T07:16:28.232Z,1027.38
2017-05-16T07:17:38.497Z,1027.39
2017-05-16T07:18:48.460Z,1027.38
2017-05-16T07:19:58.730Z,1027.38
2017-05-16T07:21:08.684Z,1027.38
2017-05-16T07:22:18.946Z,1027.42
2017-05-16T07:23:28.898Z,1027.38
2017-05-16T07:24:39.173Z,1027.4
2017-05-16T07:25:49.444Z,1027.34
2017-05-16T07:26:59.718Z,1027.38
2017-05-16T07:28:09.982Z,1027.34
2017-05-16T07:29:20.253Z,1027.37
2017-05-16T07:30:30.526Z,1027.39
2017-05-16T07:31:40.793Z,1027.39
2017-05-16T07:32:50.740Z,1027.41
2017-05-16T07:34:00.389Z,1027.38
2017-05-16T07:35:10.343Z,1027.39
2017-05-16T07:36:20.292Z,1027.38
2017-05-16T07:37:30.552Z,1027.39
2017-05-16T07:38:40.816Z,1027.38
2017-05-16T07:39:51.090Z,1027.38
2017-05-16T07:41:01.347Z,1027.37
2017-05-16T07:42:11.293Z,1027.34
2017-05-16T07:43:21.241Z,1027.36
2017-05-16T07:44:30.872Z,1027.35
2017-05-16T07:45:40.188Z,1027.35
2017-05-16T07:46:50.454Z,1027.31
2017-05-16T07:48:00.441Z,1027.34
2017-05-16T07:49:10.710Z,1027.29
2017-05-16T07:50:20.659Z,1027.27
2017-05-16T07:51:30.626Z,1027.28
2017-05-16T07:52:40.582Z,1027.31
2017-05-16T07:53:50.846Z,1027.3
2017-05-16T07:55:00.803Z,1027.31
2017-05-16T07:56:10.456Z,1027.31
2017-05-16T07:57:20.402Z,1027.33
2017-05-16T07:58:30.348Z,1027.3
2017-05-16T07:59:40.304Z,1027.3
2017-05-16T08:00:49.629Z,1027.3
2017-05-16T08:01:59.609Z,1027.27
2017-05-16T08:03:09.885Z,1027.26
2017-05-16T08:04:19.573Z,1027.24
2017-05-16T08:05:29.843Z,1027.19
2017-05-16T08:06:39.791Z,1027.21
2017-05-16T08:07:49.738Z,1027.2
2017-05-16T08:08:59.700Z,1027.21
2017-05-16T08:10:09.648Z,1027.21
2017-05-16T08:11:19.601Z,1027.25
2017-05-16T08:12:29.554Z,1027.22
2017-05-16T08:13:39.833Z,1027.2
2017-05-16T08:14:50.101Z,1027.2
2017-05-16T08:16:00.375Z,1027.22
2017-05-16T08:17:10.647Z,1027.2
2017-05-16T08:18:20.342Z,1027.22
2017-05-16T08:19:30.615Z,1027.24
2017-05-16T08:20:40.888Z,1027.22
2017-05-16T08:21:50.831Z,1027.24
2017-05-16T08:23:00.473Z,1027.26
2017-05-16T08:24:10.741Z,1027.23
2017-05-16T08:25:20.690Z,1027.24
2017-05-16T08:26:30.652Z,1027.24
2017-05-16T08:27:40.908Z,1027.27
2017-05-16T08:28:50.860Z,1027.23
2017-05-16T08:30:00.816Z,1027.28
2017-05-16T08:31:10.771Z,1027.25
2017-05-16T08:32:20.413Z,1027.3
2017-05-16T08:33:30.365Z,1027.22
2017-05-16T08:34:40.322Z,1027.26
2017-05-16T08:35:50.299Z,1027.25
2017-05-16T08:37:00.565Z,1027.21
2017-05-16T08:38:10.561Z,1027.21
2017-05-16T08:39:20.506Z,1027.2
2017-05-16T08:40:30.157Z,1027.18
2017-05-16T08:41:40.131Z,1027.2
2017-05-16T08:42:50.394Z,1027.2
2017-05-16T08:44:00.675Z,1027.19
2017-05-16T08:45:10.635Z,1027.19
2017-05-16T08:46:20.586Z,1027.17
2017-05-16T08:47:30.866Z,1027.18
2017-05-16T08:48:40.509Z,1027.19
2017-05-16T08:49:50.465Z,1027.18
2017-05-16T08:51:00.107Z,1027.14
2017-05-16T08:52:10.061Z,1027.16
2017-05-16T08:53:20.321Z,1027.14
2017-05-16T08:54:30.276Z,1027.22
2017-05-16T08:55:39.908Z,1027.23
2017-05-16T08:56:50.182Z,1027.23
2017-05-16T08:58:00.453Z,1027.18
2017-05-16T08:59:10.088Z,1027.21
2017-05-16T09:00:20.032Z,1027.21
2017-05-16T09:01:29.669Z,1027.18
2017-05-16T09:02:39.622Z,1027.19
2017-05-16T09:03:49.583Z,1027.19
2017-05-16T09:04:59.534Z,1027.17
2017-05-16T09:06:09.177Z,1027.16
2017-05-16T09:07:19.445Z,1027.19
2017-05-16T09:08:29.714Z,1027.18
2017-05-16T09:09:39.671Z,1027.19
2017-05-16T09:10:49.942Z,1027.21
2017-05-16T09:11:59.897Z,1027.22
2017-05-16T09:13:10.159Z,1027.2
2017-05-16T09:14:19.800Z,1027.21
2017-05-16T09:15:29.756Z,1027.19
2017-05-16T09:16:39.709Z,1027.2
2017-05-16T09:17:49.657Z,1027.21
2017-05-16T09:18:59.915Z,1027.18
2017-05-16T09:20:09.871Z,1027.18
2017-05-16T09:21:20.147Z,1027.19
2017-05-16T09:22:30.411Z,1027.18
2017-05-16T09:23:40.057Z,1027.22
2017-05-16T09:24:50.322Z,1027.19
2017-05-16T09:26:00.590Z,1027.19
2017-05-16T09:27:10.854Z,1027.21
2017-05-16T09:28:21.116Z,1027.22
2017-05-16T09:29:31.066Z,1027.17
2017-05-16T09:30:41.331Z,1027.19
2017-05-16T09:31:51.594Z,1027.22
2017-05-16T09:33:01.552Z,1027.21
2017-05-16T09:34:11.824Z,1027.23
2017-05-16T09:35:22.092Z,1027.2
2017-05-16T09:36:32.359Z,1027.21
2017-05-16T09:37:42.621Z,1027.22
2017-05-16T09:38:52.263Z,1027.22
2017-05-16T09:40:02.215Z,1027.2
2017-05-16T09:41:12.169Z,1027.23
2017-05-16T09:42:22.117Z,1027.23
2017-05-16T09:43:31.752Z,1027.22
2017-05-16T09:44:41.395Z,1027.21
2017-05-16T09:45:51.344Z,1027.22
2017-05-16T09:47:01.309Z,1027.27
2017-05-16T09:48:11.270Z,1027.19
2017-05-16T09:49:21.530Z,1027.23
2017-05-16T09:50:31.541Z,1027.19
2017-05-16T09:51:41.804Z,1027.2
2017-05-16T09:52:52.066Z,1027.22
2017-05-16T09:54:02.332Z,1027.2
2017-05-16T09:55:12.301Z,1027.19
2017-05-16T09:56:22.247Z,1027.22
2017-05-16T09:57:32.195Z,1027.2
2017-05-16T09:58:42.459Z,1027.23
2017-05-16T09:59:52.725Z,1027.2
2017-05-16T10:01:02.682Z,1027.2
2017-05-16T10:02:12.629Z,1027.21
2017-05-16T10:03:22.266Z,1027.22
2017-05-16T10:04:31.957Z,1027.21
2017-05-16T10:05:42.232Z,1027.2
2017-05-16T10:06:52.182Z,1027.23
2017-05-16T10:08:02.446Z,1027.21
2017-05-16T10:09:12.735Z,1027.19
2017-05-16T10:10:22.690Z,1027.17
2017-05-16T10:11:33.011Z,1027.15
2017-05-16T10:12:43.269Z,1027.12
2017-05-16T10:13:52.907Z,1027.17
2017-05-16T10:15:03.172Z,1027.2
2017-05-16T10:16:13.169Z,1027.17
2017-05-16T10:17:22.809Z,1027.17
2017-05-16T10:18:33.075Z,1027.22
2017-05-16T10:19:42.712Z,1027.21
2017-05-16T10:20:52.983Z,1027.19
2017-05-16T10:22:03.252Z,1027.22
2017-05-16T10:23:12.889Z,1027.21
2017-05-16T10:24:22.525Z,1027.16
2017-05-16T10:25:32.167Z,1027.19
2017-05-16T10:26:42.123Z,1027.2
2017-05-16T10:27:52.388Z,1027.21
2017-05-16T10:29:02.658Z,1027.21
2017-05-16T10:30:12.315Z,1027.2
2017-05-16T10:31:22.584Z,1027.18
2017-05-16T10:32:32.222Z,1027.24
2017-05-16T10:33:42.487Z,1027.16
2017-05-16T10:34:52.753Z,1027.2
2017-05-16T10:37:11.928Z,1027.23
2017-05-16T10:38:22.198Z,1027.26
2017-05-16T10:39:32.146Z,1027.2
2017-05-16T10:40:41.787Z,1027.26
2017-05-16T10:41:51.733Z,1027.26
2017-05-16T10:43:01.679Z,1027.25
2017-05-16T10:44:11.957Z,1027.26
2017-05-16T10:45:21.331Z,1027.3
2017-05-16T10:46:30.339Z,1027.26
2017-05-16T10:47:40.607Z,1027.27
2017-05-16T10:48:50.567Z,1027.28
2017-05-16T10:49:59.891Z,1027.24
2017-05-16T10:51:10.161Z,1027.29
2017-05-16T10:52:20.428Z,1027.27
2017-05-16T10:53:30.072Z,1027.28
2017-05-16T10:54:40.027Z,1027.26
2017-05-16T10:55:49.972Z,1027.24
2017-05-16T10:56:59.603Z,1027.25
2017-05-16T10:58:09.873Z,1027.26
2017-05-16T10:59:20.143Z,1027.25
2017-05-16T11:00:30.101Z,1027.27
2017-05-16T11:01:40.364Z,1027.22
2017-05-16T11:02:50.634Z,1027.28
2017-05-16T11:04:00.902Z,1027.21
2017-05-16T11:05:11.172Z,1027.23
2017-05-16T11:06:21.168Z,1027.2
2017-05-16T11:07:31.435Z,1027.22
2017-05-16T11:08:41.073Z,1027.24
2017-05-16T11:09:51.036Z,1027.25
2017-05-16T11:11:01.019Z,1027.23
2017-05-16T11:12:11.284Z,1027.22
2017-05-16T11:13:21.543Z,1027.27
2017-05-16T11:14:31.809Z,1027.26
2017-05-16T11:15:41.764Z,1027.23
2017-05-16T11:16:52.025Z,1027.22
2017-05-16T11:18:01.976Z,1027.2
2017-05-16T11:19:11.937Z,1027.22
2017-05-16T11:20:22.205Z,1027.27
2017-05-16T11:21:32.164Z,1027.22
2017-05-16T11:22:42.424Z,1027.24
2017-05-16T11:23:52.691Z,1027.21
2017-05-16T11:25:02.956Z,1027.21
2017-05-16T11:26:12.901Z,1027.2
2017-05-16T11:27:22.857Z,1027.24
2017-05-16T11:28:33.127Z,1027.22
2017-05-16T11:29:43.397Z,1027.23
2017-05-16T11:30:53.348Z,1027.26
2017-05-16T11:32:03.037Z,1027.26
2017-05-16T11:33:12.996Z,1027.26
2017-05-16T11:34:22.947Z,1027.26
2017-05-16T11:35:33.207Z,1027.28
2017-05-16T11:36:43.467Z,1027.24
2017-05-16T11:37:53.413Z,1027.26
2017-05-16T11:39:03.678Z,1027.26
2017-05-16T11:40:13.630Z,1027.21
2017-05-16T11:41:23.897Z,1027.25
2017-05-16T11:42:33.855Z,1027.24
2017-05-16T11:43:44.123Z,1027.18
2017-05-16T11:44:53.755Z,1027.18
2017-05-16T11:46:03.703Z,1027.19
2017-05-16T11:47:13.681Z,1027.19
2017-05-16T11:48:23.951Z,1027.17
2017-05-16T11:49:34.218Z,1027.19
2017-05-16T11:50:44.494Z,1027.2
2017-05-16T11:51:54.443Z,1027.19
2017-05-16T11:53:04.704Z,1027.17
2017-05-16T11:54:14.342Z,1027.17
2017-05-16T11:55:24.291Z,1027.14
2017-05-16T11:56:34.552Z,1027.09
2017-05-16T11:57:44.185Z,1027.09
2017-05-16T11:58:54.138Z,1027.08
2017-05-16T12:00:04.409Z,1027.08
2017-05-16T12:01:14.359Z,1027.03
2017-05-16T12:02:24.626Z,1027.01
2017-05-16T12:03:34.899Z,1027.01
2017-05-16T12:04:44.856Z,1026.96
2017-05-16T12:05:54.809Z,1026.96
2017-05-16T12:07:05.077Z,1026.98
2017-05-16T12:08:15.027Z,1026.96
2017-05-16T12:09:24.975Z,1026.94
2017-05-16T12:10:34.934Z,1026.88
2017-05-16T12:11:45.208Z,1026.87
2017-05-16T12:12:55.472Z,1026.88
2017-05-16T12:14:05.744Z,1026.86
2017-05-16T12:15:15.380Z,1026.86
2017-05-16T12:16:25.331Z,1026.83
2017-05-16T12:17:35.289Z,1026.8
2017-05-16T12:18:45.578Z,1026.75
2017-05-16T12:19:55.842Z,1026.78
2017-05-16T12:21:05.791Z,1026.79
2017-05-16T12:22:15.738Z,1026.75
2017-05-16T12:23:25.997Z,1026.73
2017-05-16T12:24:35.942Z,1026.74
2017-05-16T12:25:46.223Z,1026.69
2017-05-16T12:26:56.493Z,1026.72
2017-05-16T12:28:06.764Z,1026.65
2017-05-16T12:29:16.709Z,1026.61
2017-05-16T12:30:26.976Z,1026.67
2017-05-16T12:31:36.928Z,1026.65
2017-05-16T12:32:47.191Z,1026.64
2017-05-16T12:33:56.832Z,1026.62
2017-05-16T12:35:07.099Z,1026.59
2017-05-16T12:36:17.359Z,1026.61
2017-05-16T12:37:27.620Z,1026.55
2017-05-16T12:38:37.566Z,1026.57
2017-05-16T12:39:47.515Z,1026.57
2017-05-16T12:40:57.468Z,1026.51
2017-05-16T12:42:06.794Z,1026.55
2017-05-16T12:43:16.430Z,1026.52
2017-05-16T12:44:26.377Z,1026.56
2017-05-16T12:45:36.328Z,1026.55
2017-05-16T12:46:46.279Z,1026.55
2017-05-16T12:47:56.222Z,1026.58
2017-05-16T12:49:06.489Z,1026.58
2017-05-16T12:50:16.122Z,1026.54
2017-05-16T12:51:26.381Z,1026.59
2017-05-16T12:52:36.024Z,1026.53
2017-05-16T12:53:46.287Z,1026.55
2017-05-16T12:54:56.247Z,1026.54
2017-05-16T12:56:06.252Z,1026.54
2017-05-16T12:57:16.518Z,1026.55
2017-05-16T12:58:26.781Z,1026.55
2017-05-16T12:59:37.052Z,1026.56
2017-05-16T13:00:47.320Z,1026.53
2017-05-16T13:01:57.280Z,1026.52
2017-05-16T13:03:07.552Z,1026.53
2017-05-16T13:04:17.193Z,1026.52
2017-05-16T13:05:27.460Z,1026.54
2017-05-16T13:06:37.464Z,1026.54
2017-05-16T13:07:47.735Z,1026.54
2017-05-16T13:08:58.001Z,1026.53
2017-05-16T13:10:08.265Z,1026.47
2017-05-16T13:11:17.899Z,1026.47
2017-05-16T13:12:28.166Z,1026.44
2017-05-16T13:13:38.430Z,1026.44
2017-05-16T13:14:48.701Z,1026.43
2017-05-16T13:15:58.393Z,1026.41
2017-05-16T13:17:08.345Z,1026.38
2017-05-16T13:18:18.298Z,1026.39
2017-05-16T13:19:28.251Z,1026.37
2017-05-16T13:20:38.521Z,1026.33
2017-05-16T13:21:48.470Z,1026.34
2017-05-16T13:22:58.737Z,1026.34
2017-05-16T13:24:08.373Z,1026.35
2017-05-16T13:25:18.636Z,1026.36
2017-05-16T13:26:28.584Z,1026.32
2017-05-16T13:27:38.530Z,1026.34
2017-05-16T13:28:48.479Z,1026.32
2017-05-16T13:29:58.746Z,1026.31
2017-05-16T13:31:08.387Z,1026.32
2017-05-16T13:32:18.018Z,1026.3
2017-05-16T13:33:28.286Z,1026.28
2017-05-16T13:34:38.236Z,1026.27
2017-05-16T13:35:47.868Z,1026.27
2017-05-16T13:36:57.827Z,1026.28
2017-05-16T13:38:07.781Z,1026.31
2017-05-16T13:39:18.088Z,1026.28
2017-05-16T13:40:28.354Z,1026.27
2017-05-16T13:41:38.309Z,1026.26
2017-05-16T13:42:47.950Z,1026.28
2017-05-16T13:43:58.213Z,1026.26
2017-05-16T13:45:07.849Z,1026.24
2017-05-16T13:46:18.122Z,1026.25
2017-05-16T13:47:28.074Z,1026.22
2017-05-16T13:48:38.026Z,1026.23
2017-05-16T13:49:47.664Z,1026.24
2017-05-16T13:50:57.922Z,1026.2
2017-05-16T13:52:07.871Z,1026.23
2017-05-16T13:53:17.825Z,1026.17
2017-05-16T13:54:27.775Z,1026.19
2017-05-16T13:55:37.728Z,1026.21
2017-05-16T13:56:47.689Z,1026.21
2017-05-16T13:57:57.639Z,1026.18
2017-05-16T13:59:07.585Z,1026.18
2017-05-16T14:00:17.543Z,1026.17
2017-05-16T14:01:27.819Z,1026.12
2017-05-16T14:02:38.100Z,1026.11
2017-05-16T14:03:47.746Z,1026.11
2017-05-16T14:04:57.711Z,1026.12
2017-05-16T14:06:07.352Z,1026.11
2017-05-16T14:07:17.355Z,1026.07
2017-05-16T14:08:27.630Z,1026.07
2017-05-16T14:09:37.909Z,1026.1
2017-05-16T14:10:47.899Z,1026.1
2017-05-16T14:11:57.861Z,1026.11